createdAt,value
2022-11-14T00:00:53.024Z,14.23
2022-11-14T00:03:39.485Z,16.00
2022-11-14T00:06:26.115Z,14.27
2022-11-14T00:09:12.784Z,14.13
2022-11-14T00:11:59.472Z,14.57
2022-11-14T00:14:47.330Z,13.87
2022-11-14T00:17:34.066Z,14.03
2022-11-14T00:20:20.907Z,14.90
2022-11-14T00:23:07.400Z,12.47
2022-11-14T00:25:54.022Z,13.73
2022-11-14T00:28:40.718Z,14.90
2022-11-14T00:31:28.806Z,15.97
2022-11-14T00:34:15.599Z,14.63
2022-11-14T00:37:02.562Z,15.27
2022-11-14T00:39:49.244Z,15.23
2022-11-14T00:42:35.891Z,15.57
2022-11-14T00:45:23.124Z,16.77
2022-11-14T00:48:11.223Z,17.10
2022-11-14T00:50:57.743Z,15.30
2022-11-14T00:53:44.284Z,14.67
2022-11-14T00:56:30.978Z,14.33
2022-11-14T00:59:17.740Z,17.03
2022-11-14T01:02:04.408Z,15.30
2022-11-14T01:04:52.278Z,16.90
2022-11-14T01:07:38.516Z,17.53
2022-11-14T01:10:25.307Z,16.33
2022-11-14T01:13:12.853Z,16.50
2022-11-14T01:16:02.203Z,15.17
2022-11-14T01:18:48.896Z,13.40
2022-11-14T01:21:36.943Z,14.70
2022-11-14T01:24:23.286Z,16.33
2022-11-14T01:27:09.889Z,15.63
2022-11-14T01:29:56.669Z,15.93
2022-11-14T01:32:43.374Z,15.43
2022-11-14T01:35:30.491Z,18.00
2022-11-14T01:38:18.633Z,15.03
2022-11-14T01:41:05.793Z,15.43
2022-11-14T01:43:52.255Z,15.80
2022-11-14T01:46:41.960Z,13.80
2022-11-14T01:49:36.915Z,13.73
2022-11-14T01:52:26.657Z,13.53
2022-11-14T01:55:15.290Z,14.63
2022-11-14T01:58:01.954Z,16.27
2022-11-14T02:00:49.282Z,15.13
2022-11-14T02:03:39.331Z,16.10
2022-11-14T02:06:30.134Z,16.03
2022-11-14T02:09:17.460Z,13.97
2022-11-14T02:12:10.267Z,16.23
2022-11-14T02:14:59.938Z,14.50
2022-11-14T02:17:46.672Z,15.17
2022-11-14T02:20:37.772Z,15.63
2022-11-14T02:23:29.252Z,15.70
2022-11-14T02:26:18.608Z,15.00
2022-11-14T02:29:05.477Z,14.07
2022-11-14T02:31:51.959Z,16.60
2022-11-14T02:34:38.812Z,14.47
2022-11-14T02:37:26.737Z,16.37
2022-11-14T02:40:13.363Z,16.07
2022-11-14T02:42:59.977Z,15.47
2022-11-14T02:45:46.840Z,16.23
2022-11-14T02:48:33.159Z,17.20
2022-11-14T02:51:19.548Z,15.60
2022-11-14T02:54:08.321Z,15.10
2022-11-14T02:56:55.051Z,15.33
2022-11-14T02:59:41.620Z,14.97
2022-11-14T03:02:28.120Z,15.00
2022-11-14T03:05:14.890Z,13.53
2022-11-14T03:08:01.471Z,15.60
2022-11-14T03:10:49.384Z,14.83
2022-11-14T03:13:36.319Z,15.57
2022-11-14T03:16:23.080Z,15.67
2022-11-14T03:19:09.631Z,16.87
2022-11-14T03:21:56.125Z,15.27
2022-11-14T03:24:42.566Z,18.00
2022-11-14T03:27:30.366Z,18.53
2022-11-14T03:30:17.235Z,17.67
2022-11-14T03:33:03.520Z,17.80
2022-11-14T03:35:51.119Z,20.40
2022-11-14T03:38:37.973Z,16.93
2022-11-14T03:41:24.330Z,16.07
2022-11-14T03:44:12.311Z,17.30
2022-11-14T03:46:59.453Z,15.80
2022-11-14T03:49:46.401Z,18.80
2022-11-14T03:52:32.966Z,16.40
2022-11-14T03:55:19.654Z,16.37
2022-11-14T03:58:06.381Z,16.57
2022-11-14T04:00:55.934Z,16.10
2022-11-14T04:03:42.344Z,16.93
2022-11-14T04:06:28.791Z,16.60
2022-11-14T04:09:15.609Z,16.43
2022-11-14T04:12:01.933Z,14.00
2022-11-14T04:14:48.601Z,12.80
2022-11-14T04:17:39.840Z,16.10
2022-11-14T04:20:26.875Z,15.30
2022-11-14T04:23:13.441Z,13.93
2022-11-14T04:26:00.011Z,14.30
2022-11-14T04:28:46.630Z,13.60
2022-11-14T04:31:33.240Z,13.30
2022-11-14T04:34:21.204Z,13.00
2022-11-14T04:37:07.834Z,12.67
2022-11-14T04:39:58.509Z,11.67
2022-11-14T04:42:45.083Z,12.47
2022-11-14T04:45:31.805Z,11.33
2022-11-14T04:48:18.388Z,11.90
2022-11-14T04:51:06.547Z,13.93
2022-11-14T04:53:53.243Z,12.03
2022-11-14T04:56:39.736Z,10.10
2022-11-14T04:59:26.383Z,12.07
2022-11-14T05:02:13.007Z,12.13
2022-11-14T05:04:59.479Z,13.67
2022-11-14T05:07:47.312Z,13.17
2022-11-14T05:10:33.917Z,12.80
2022-11-14T05:13:20.736Z,13.03
2022-11-14T05:16:07.669Z,11.87
2022-11-14T05:18:55.011Z,14.00
2022-11-14T05:21:41.333Z,18.97
2022-11-14T05:24:29.374Z,17.90
2022-11-14T05:27:15.664Z,14.63
2022-11-14T05:30:02.087Z,14.40
2022-11-14T05:32:48.941Z,13.60
2022-11-14T05:35:35.561Z,11.20
2022-11-14T05:38:22.507Z,13.57
2022-11-14T05:41:12.947Z,31.50
2022-11-14T05:43:59.615Z,126.83
2022-11-14T05:46:46.397Z,17.57
2022-11-14T05:49:33.288Z,15.20
2022-11-14T05:52:20.010Z,14.43
2022-11-14T05:55:07.310Z,15.83
2022-11-14T05:57:59.283Z,13.67
2022-11-14T06:00:53.441Z,14.40
2022-11-14T06:03:42.228Z,14.37
2022-11-14T06:06:29.388Z,16.00
2022-11-14T06:09:15.725Z,12.97
2022-11-14T06:12:06.109Z,22.87
2022-11-14T06:14:54.187Z,16.40
2022-11-14T06:17:41.242Z,14.77
2022-11-14T06:20:27.691Z,15.80
2022-11-14T06:23:14.114Z,13.90
2022-11-14T06:26:01.637Z,15.50
2022-11-14T06:28:49.514Z,20.47
2022-11-14T06:31:37.365Z,15.57
2022-11-14T06:34:23.963Z,15.53
2022-11-14T06:37:10.571Z,18.60
2022-11-14T06:39:56.776Z,16.23
2022-11-14T06:42:43.311Z,14.20
2022-11-14T06:45:30.128Z,13.13
2022-11-14T06:48:17.885Z,12.93
2022-11-14T06:51:06.314Z,10.83
2022-11-14T06:53:52.921Z,13.10
2022-11-14T06:56:39.717Z,12.93
2022-11-14T06:59:26.251Z,13.57
2022-11-14T07:02:17.754Z,14.63
2022-11-14T07:05:10.275Z,15.07
2022-11-14T07:07:58.886Z,15.37
2022-11-14T07:10:45.597Z,19.60
2022-11-14T07:13:32.710Z,17.23
2022-11-14T07:16:19.795Z,18.40
2022-11-14T07:19:09.149Z,27.03
2022-11-14T07:21:56.904Z,41.97
2022-11-14T07:24:43.477Z,54.80
2022-11-14T07:27:30.407Z,50.57
2022-11-14T07:30:17.638Z,24.43
2022-11-14T07:33:04.095Z,32.83
2022-11-14T07:35:52.516Z,21.83
2022-11-14T07:38:41.113Z,19.83
2022-11-14T07:41:27.607Z,18.93
2022-11-14T07:44:14.016Z,22.80
2022-11-14T07:47:00.697Z,21.17
2022-11-14T07:49:47.517Z,21.83
2022-11-14T07:52:34.077Z,19.50
2022-11-14T07:55:22.895Z,21.03
2022-11-14T07:58:09.537Z,22.83
2022-11-14T08:00:55.784Z,18.40
2022-11-14T08:03:45.622Z,19.70
2022-11-14T08:06:33.308Z,22.03
2022-11-14T08:09:20.221Z,21.87
2022-11-14T08:12:08.606Z,20.70
2022-11-14T08:14:54.829Z,18.87
2022-11-14T08:17:41.617Z,18.50
2022-11-14T08:20:28.573Z,15.13
2022-11-14T08:23:15.151Z,18.87
2022-11-14T08:26:01.863Z,15.23
2022-11-14T08:28:53.170Z,14.80
2022-11-14T08:31:40.369Z,17.73
2022-11-14T08:34:26.979Z,15.20
2022-11-14T08:37:13.520Z,16.37
2022-11-14T08:39:59.995Z,14.93
2022-11-14T08:42:46.654Z,27.03
2022-11-14T08:45:34.371Z,17.00
2022-11-14T08:48:20.863Z,10.03
2022-11-14T08:51:08.506Z,9.87
2022-11-14T08:53:54.963Z,9.17
2022-11-14T08:56:41.602Z,5.30
2022-11-14T08:59:28.224Z,6.20
2022-11-14T09:02:16.182Z,10.73
2022-11-14T09:05:02.789Z,5.10
2022-11-14T09:07:49.004Z,4.73
2022-11-14T09:10:35.750Z,8.23
2022-11-14T09:13:22.624Z,3.23
2022-11-14T09:16:09.766Z,3.30
2022-11-14T09:18:57.643Z,4.50
2022-11-14T09:21:44.475Z,4.47
2022-11-14T09:24:31.161Z,2.83
2022-11-14T09:27:18.575Z,3.80
2022-11-14T09:30:06.281Z,3.97
2022-11-14T09:32:52.948Z,3.63
2022-11-14T09:35:41.335Z,3.20
2022-11-14T09:38:30.118Z,3.23
2022-11-14T09:41:25.171Z,4.17
2022-11-14T09:44:30.674Z,4.73
2022-11-14T09:47:21.661Z,3.33
2022-11-14T09:50:12.663Z,4.40
2022-11-14T09:53:06.165Z,4.20
2022-11-14T09:55:53.309Z,3.67
2022-11-14T09:58:42.614Z,3.10
2022-11-14T10:01:41.507Z,5.97
2022-11-14T10:04:42.043Z,3.33
2022-11-14T10:07:40.233Z,4.80
2022-11-14T10:10:43.400Z,2.73
2022-11-14T10:13:51.092Z,5.30
2022-11-14T10:16:47.726Z,3.33
2022-11-14T10:19:42.811Z,3.37
2022-11-14T10:22:51.791Z,3.97
2022-11-14T10:25:53.725Z,3.30
2022-11-14T10:28:48.547Z,2.50
2022-11-14T10:31:47.225Z,3.63
2022-11-14T10:34:39.081Z,3.60
2022-11-14T10:37:32.707Z,2.13
2022-11-14T10:40:23.104Z,2.70
2022-11-14T10:43:21.638Z,3.17
2022-11-14T10:46:14.369Z,5.50
2022-11-14T10:49:01.206Z,3.10
2022-11-14T10:51:51.524Z,3.70
2022-11-14T10:54:42.972Z,3.40
2022-11-14T10:57:30.671Z,2.93
2022-11-14T11:00:22.959Z,2.80
2022-11-14T11:03:09.797Z,4.47
2022-11-14T11:05:57.740Z,2.80
2022-11-14T11:09:02.086Z,4.00
2022-11-14T11:11:56.694Z,3.50
2022-11-14T11:14:44.261Z,8.20
2022-11-14T11:17:38.617Z,5.97
2022-11-14T11:20:32.020Z,3.80
2022-11-14T11:23:21.522Z,3.63
2022-11-14T11:26:17.065Z,2.47
2022-11-14T11:29:17.288Z,2.63
2022-11-14T11:32:04.039Z,1.90
2022-11-14T11:34:53.290Z,3.30
2022-11-14T11:37:45.004Z,3.07
2022-11-14T11:40:31.879Z,2.27
2022-11-14T11:43:42.856Z,3.23
2022-11-14T11:46:35.373Z,3.17
2022-11-14T11:49:36.352Z,2.83
2022-11-14T11:52:33.763Z,2.10
2022-11-14T11:55:25.082Z,1.73
2022-11-14T11:58:17.709Z,2.50
2022-11-14T12:01:04.443Z,2.17
2022-11-14T12:03:53.241Z,4.47
2022-11-14T12:06:47.484Z,2.57
2022-11-14T12:10:09.458Z,3.97
2022-11-14T12:13:06.622Z,2.23
2022-11-14T12:16:10.234Z,31.37
2022-11-14T12:19:25.568Z,3.40
2022-11-14T12:22:23.826Z,3.10
2022-11-14T12:25:39.488Z,5.47
2022-11-14T12:28:42.331Z,2.50
2022-11-14T12:31:33.320Z,3.00
2022-11-14T12:34:28.200Z,4.03
2022-11-14T12:37:21.837Z,3.23
2022-11-14T12:40:25.378Z,7.03
2022-11-14T12:43:36.392Z,4.57
2022-11-14T12:46:23.784Z,4.00
2022-11-14T12:49:38.426Z,1.80
2022-11-14T12:52:44.433Z,3.20
2022-11-14T12:56:03.609Z,3.33
2022-11-14T12:59:05.563Z,2.37
2022-11-14T13:02:28.287Z,2.37
2022-11-14T13:05:25.381Z,4.67
2022-11-14T13:08:45.694Z,3.97
2022-11-14T13:11:58.244Z,3.17
2022-11-14T13:15:08.071Z,4.43
2022-11-14T13:18:23.151Z,6.63
2022-11-14T13:21:45.373Z,8.53
2022-11-14T13:25:18.150Z,16.20
2022-11-14T13:28:38.659Z,11.83
2022-11-14T13:31:50.673Z,17.60
2022-11-14T13:34:43.200Z,16.63
2022-11-14T13:37:58.901Z,8.83
2022-11-14T13:40:53.173Z,4.47
2022-11-14T13:43:57.103Z,6.93
2022-11-14T13:47:10.322Z,6.30
2022-11-14T13:50:06.650Z,5.23
2022-11-14T13:52:53.882Z,4.70
2022-11-14T13:56:02.389Z,4.27
2022-11-14T13:59:06.400Z,6.07
2022-11-14T14:02:16.222Z,7.20
2022-11-14T14:05:14.153Z,5.07
2022-11-14T14:08:15.269Z,3.60
2022-11-14T14:11:23.382Z,3.90
2022-11-14T14:14:25.430Z,5.53
2022-11-14T14:17:21.783Z,5.90
2022-11-14T14:20:22.444Z,5.47
2022-11-14T14:23:19.795Z,8.20
2022-11-14T14:26:20.226Z,5.63
2022-11-14T14:38:02.127Z,6.80
2022-11-14T14:40:49.429Z,4.67
2022-11-14T14:43:36.685Z,5.07
2022-11-14T14:46:32.022Z,4.07
2022-11-14T14:49:26.841Z,5.47
2022-11-14T14:52:29.602Z,4.57
2022-11-14T14:55:22.579Z,4.50
2022-11-14T14:58:22.270Z,4.83
2022-11-14T15:01:16.756Z,4.07
2022-11-14T15:04:06.189Z,4.23
2022-11-14T15:06:52.887Z,6.10
2022-11-14T15:09:39.734Z,6.27
2022-11-14T15:12:31.020Z,3.33
2022-11-14T15:15:20.163Z,6.20
2022-11-14T15:18:09.897Z,3.60
2022-11-14T15:21:14.782Z,10.03
2022-11-14T15:24:04.062Z,6.67
2022-11-14T15:26:52.306Z,7.07
2022-11-14T15:29:46.762Z,5.00
2022-11-14T15:32:33.709Z,7.47
2022-11-14T15:35:31.763Z,5.63
2022-11-14T15:38:43.219Z,8.73
2022-11-14T15:41:31.165Z,5.17
2022-11-14T15:44:30.959Z,4.23
2022-11-14T15:47:24.165Z,5.33
2022-11-14T15:50:30.306Z,8.43
2022-11-14T15:53:23.768Z,5.67
2022-11-14T15:56:13.051Z,8.80
2022-11-14T15:58:59.683Z,7.13
2022-11-14T16:01:50.482Z,5.77
2022-11-14T16:04:44.369Z,9.80
2022-11-14T16:07:34.125Z,7.53
2022-11-14T16:10:22.437Z,7.97
2022-11-14T16:13:10.152Z,5.07
2022-11-14T16:15:56.920Z,8.97
2022-11-14T16:18:43.155Z,9.80
2022-11-14T16:21:31.198Z,6.43
2022-11-14T16:24:19.786Z,5.70
2022-11-14T16:27:06.469Z,8.33
2022-11-14T16:29:53.134Z,11.50
2022-11-14T16:32:40.342Z,6.97
2022-11-14T16:35:28.025Z,9.87
2022-11-14T16:38:15.651Z,11.90
2022-11-14T16:41:01.977Z,8.40
2022-11-14T16:43:48.565Z,7.63
2022-11-14T16:46:36.118Z,7.27
2022-11-14T16:49:22.562Z,7.03
2022-11-14T16:52:11.513Z,6.67
2022-11-14T16:54:59.374Z,8.37
2022-11-14T16:57:45.808Z,7.37
2022-11-14T17:00:33.583Z,8.33
2022-11-14T17:03:20.096Z,7.50
2022-11-14T17:06:09.497Z,12.97
2022-11-14T17:08:56.233Z,15.33
2022-11-14T17:11:45.139Z,13.13
2022-11-14T17:14:31.854Z,11.77
2022-11-14T17:17:18.427Z,11.77
2022-11-14T17:20:05.809Z,10.67
2022-11-14T17:22:51.913Z,11.67
2022-11-14T17:25:38.432Z,13.53
2022-11-14T17:28:26.436Z,13.40
2022-11-14T17:31:12.751Z,19.43
2022-11-14T17:34:01.049Z,15.27
2022-11-14T17:36:47.228Z,13.07
2022-11-14T17:39:35.136Z,24.77
2022-11-14T17:42:21.374Z,25.37
2022-11-14T17:45:10.647Z,17.03
2022-11-14T17:47:57.363Z,17.97
2022-11-14T17:50:44.055Z,17.93
2022-11-14T17:53:31.054Z,19.13
2022-11-14T17:56:20.209Z,17.30
2022-11-14T17:59:06.865Z,16.57
2022-11-14T18:01:57.543Z,15.07
2022-11-14T18:04:44.294Z,23.53
2022-11-14T18:07:31.130Z,18.20
2022-11-14T18:10:18.499Z,22.27
2022-11-14T18:13:05.206Z,22.27
2022-11-14T18:15:51.960Z,15.13
2022-11-14T18:18:40.217Z,17.97
2022-11-14T18:21:27.152Z,22.23
2022-11-14T18:24:14.950Z,17.97
2022-11-14T18:27:01.663Z,15.17
2022-11-14T18:29:48.575Z,13.77
2022-11-14T18:32:35.339Z,21.67
2022-11-14T18:35:23.216Z,28.47
2022-11-14T18:38:09.599Z,26.37
2022-11-14T18:40:57.677Z,42.97
2022-11-14T18:43:45.391Z,23.67
2022-11-14T18:46:37.051Z,25.23
2022-11-14T18:49:23.841Z,24.50
2022-11-14T18:52:17.192Z,18.33
2022-11-14T18:55:04.806Z,22.00
2022-11-14T18:57:51.401Z,24.37
2022-11-14T19:00:37.890Z,29.87
2022-11-14T19:03:24.396Z,21.97
2022-11-14T19:06:12.430Z,22.17
2022-11-14T19:09:03.579Z,25.67
2022-11-14T19:12:11.085Z,25.13
2022-11-14T19:14:57.462Z,22.63
2022-11-14T19:17:44.198Z,18.73
2022-11-14T19:20:30.595Z,14.07
2022-11-14T19:23:17.302Z,15.17
2022-11-14T19:26:05.571Z,13.13
2022-11-14T19:28:52.047Z,19.47
2022-11-14T19:31:38.798Z,10.73
2022-11-14T19:34:25.653Z,25.53
2022-11-14T19:37:12.191Z,21.10
2022-11-14T19:39:58.845Z,14.87
2022-11-14T19:42:46.823Z,10.93
2022-11-14T19:45:35.372Z,13.70
2022-11-14T19:48:21.884Z,14.50
2022-11-14T19:51:11.373Z,13.83
2022-11-14T19:53:59.795Z,13.40
2022-11-14T19:56:46.236Z,10.43
2022-11-14T19:59:34.247Z,11.93
2022-11-14T20:02:20.760Z,9.30
2022-11-14T20:05:08.713Z,9.80
2022-11-14T20:07:55.429Z,8.83
2022-11-14T20:10:48.385Z,9.53
2022-11-14T20:13:36.397Z,7.63
2022-11-14T20:16:26.590Z,12.43
2022-11-14T20:19:14.791Z,11.33
2022-11-14T20:22:01.430Z,10.60
2022-11-14T20:24:50.447Z,10.77
2022-11-14T20:27:37.311Z,9.97
2022-11-14T20:30:25.123Z,11.63
2022-11-14T20:33:13.173Z,11.67
2022-11-14T20:36:04.135Z,11.30
2022-11-14T20:38:53.336Z,11.00
2022-11-14T20:41:40.400Z,11.10
2022-11-14T20:44:29.003Z,10.43
2022-11-14T20:47:17.360Z,15.90
2022-11-14T20:50:05.564Z,12.60
2022-11-14T20:52:52.258Z,17.20
2022-11-14T20:55:39.130Z,26.83
2022-11-14T20:58:25.936Z,22.33
2022-11-14T21:01:13.800Z,22.43
2022-11-14T21:04:00.246Z,16.80
2022-11-14T21:06:48.171Z,12.53
2022-11-14T21:09:34.871Z,10.20
2022-11-14T21:12:21.520Z,16.03
2022-11-14T21:15:09.165Z,8.63
2022-11-14T21:17:55.495Z,11.40
2022-11-14T21:20:42.049Z,17.00
2022-11-14T21:23:30.295Z,13.43
2022-11-14T21:26:18.629Z,10.60
2022-11-14T21:29:07.759Z,13.63
2022-11-14T21:31:55.679Z,10.30
2022-11-14T21:34:42.686Z,14.33
2022-11-14T21:37:29.389Z,14.57
2022-11-14T21:40:17.694Z,13.57
2022-11-14T21:43:04.550Z,13.00
2022-11-14T21:45:58.743Z,13.80
2022-11-14T21:48:47.276Z,10.40
2022-11-14T21:51:33.617Z,8.13
2022-11-14T21:54:20.633Z,10.53
2022-11-14T21:57:10.230Z,9.63
2022-11-14T21:59:57.386Z,11.33
2022-11-14T22:03:01.671Z,7.93
2022-11-14T22:05:48.398Z,6.07
2022-11-14T22:08:35.041Z,12.97
2022-11-14T22:11:21.885Z,11.90
2022-11-14T22:14:09.942Z,10.57
2022-11-14T22:16:58.929Z,7.80
2022-11-14T22:19:45.797Z,10.93
2022-11-14T22:22:32.998Z,10.27
2022-11-14T22:25:20.603Z,12.63
2022-11-14T22:28:07.261Z,12.03
2022-11-14T22:31:10.668Z,9.57
2022-11-14T22:33:59.536Z,13.43
2022-11-14T22:36:46.122Z,22.43
2022-11-14T22:39:32.824Z,10.23
2022-11-14T22:42:19.471Z,11.87
2022-11-14T22:45:07.678Z,8.33
2022-11-14T22:47:58.812Z,11.07
2022-11-14T22:50:45.603Z,12.60
2022-11-14T22:53:34.141Z,10.70
2022-11-14T22:56:23.188Z,10.93
2022-11-14T22:59:10.322Z,15.80
2022-11-14T23:01:56.950Z,8.63
2022-11-14T23:04:44.700Z,10.63
2022-11-14T23:07:31.660Z,12.20
2022-11-14T23:10:18.958Z,27.17
2022-11-14T23:13:05.484Z,20.40
2022-11-14T23:15:52.099Z,12.57
2022-11-14T23:18:39.121Z,12.83
2022-11-14T23:21:28.990Z,12.00
2022-11-14T23:24:15.810Z,8.80
2022-11-14T23:27:02.291Z,9.90
2022-11-14T23:29:49.239Z,12.30
2022-11-14T23:32:35.634Z,11.20
2022-11-14T23:35:22.159Z,11.50
2022-11-14T23:38:10.668Z,8.63
2022-11-14T23:40:58.991Z,8.37
2022-11-14T23:43:45.495Z,8.73
2022-11-14T23:46:31.989Z,10.03
2022-11-14T23:49:18.586Z,10.00
2022-11-14T23:52:05.532Z,9.57
2022-11-14T23:54:53.393Z,8.27
2022-11-14T23:57:39.727Z,7.50
